Time;durP1;ratioP1;P1;durP2;ratioP2;P2;SDS_P1;SDS_P2;PMS_P1;PMS_P2;Temp;Humidity;BMP_temperature;BMP_pressure;BME280_temperature;BME280_humidity;BME280_pressure;Samples;Min_cycle;Max_cycle;Signal;HPM_P1;HPM_P2
2021/05/27 00:00:53;;;;;;;0.30;0.20;;;;;;;9.23;100.00;100226.59;5052357;28;20864;-52
2021/05/27 00:03:20;;;;;;;1.27;0.67;;;;;;;9.07;100.00;100235.81;5052529;28;20451;-53
2021/05/27 00:05:47;;;;;;;0.30;0.20;;;;;;;8.83;100.00;100229.31;5052604;28;20447;-52
2021/05/27 00:08:14;;;;;;;0.30;0.20;;;;;;;8.58;100.00;100227.19;5052065;28;20549;-52
2021/05/27 00:10:41;;;;;;;0.30;0.20;;;;;;;8.29;100.00;100226.88;5052544;28;20520;-52
2021/05/27 00:13:08;;;;;;;0.30;0.20;;;;;;;8.37;100.00;100232.94;5052030;28;20564;-52
2021/05/27 00:15:39;;;;;;;0.30;0.20;;;;;;;8.22;100.00;100234.09;5052043;28;20458;-53
2021/05/27 00:18:06;;;;;;;0.30;0.20;;;;;;;8.49;100.00;100235.31;5052047;28;20516;-51
2021/05/27 00:20:33;;;;;;;0.30;0.20;;;;;;;8.30;100.00;100220.69;5052299;28;20455;-52
2021/05/27 00:23:00;;;;;;;0.37;0.30;;;;;;;8.71;100.00;100229.56;5038938;28;20459;-52
2021/05/27 00:25:27;;;;;;;0.30;0.20;;;;;;;8.87;100.00;100221.22;5051844;28;20565;-52
2021/05/27 00:27:53;;;;;;;0.30;0.20;;;;;;;8.75;100.00;100231.22;5051918;28;20494;-52
2021/05/27 00:30:21;;;;;;;0.30;0.20;;;;;;;8.81;100.00;100234.63;5050631;28;20932;-52
2021/05/27 00:32:49;;;;;;;0.30;0.20;;;;;;;8.70;100.00;100233.13;5052153;28;20459;-52
2021/05/27 00:35:15;;;;;;;0.30;0.20;;;;;;;9.08;100.00;100234.91;5052041;28;20456;-52
2021/05/27 00:37:42;;;;;;;0.30;0.20;;;;;;;9.04;100.00;100239.41;5051953;28;20787;-52
2021/05/27 00:40:12;;;;;;;0.30;0.20;;;;;;;9.06;100.00;100239.38;5051739;28;20451;-53
2021/05/27 00:42:39;;;;;;;0.30;0.20;;;;;;;8.90;100.00;100244.13;5051761;28;20943;-52
2021/05/27 00:45:11;;;;;;;0.30;0.20;;;;;;;8.87;100.00;100250.38;5051615;28;20501;-52
2021/05/27 00:47:39;;;;;;;0.30;0.20;;;;;;;9.20;100.00;100240.81;5051698;28;20900;-52
2021/05/27 00:50:08;;;;;;;0.30;0.20;;;;;;;9.20;100.00;100240.81;5051722;28;20494;-52
2021/05/27 00:52:35;;;;;;;0.30;0.20;;;;;;;8.97;100.00;100244.88;5051722;28;20451;-52
2021/05/27 00:55:04;;;;;;;0.30;0.20;;;;;;;9.11;100.00;100241.00;5051503;28;20906;-52
2021/05/27 00:57:37;;;;;;;0.30;0.20;;;;;;;9.05;100.00;100243.81;5051735;28;20474;-52
2021/05/27 01:00:08;;;;;;;0.30;0.20;;;;;;;8.82;100.00;100239.03;5051799;28;20806;-53
2021/05/27 01:02:35;;;;;;;0.30;0.20;;;;;;;8.81;100.00;100241.72;5051607;28;20474;-52
2021/05/27 01:05:03;;;;;;;0.30;0.20;;;;;;;8.69;100.00;100237.56;5051485;28;20504;-52
2021/05/27 01:07:30;;;;;;;0.30;0.20;;;;;;;8.64;100.00;100244.75;5051324;28;20932;-52
2021/05/27 01:09:57;;;;;;;0.30;0.20;;;;;;;8.40;100.00;100238.19;5052019;28;20482;-52
2021/05/27 01:12:25;;;;;;;0.30;0.20;;;;;;;8.32;100.00;100246.22;5055155;28;20509;-52
2021/05/27 01:17:38;;;;;;;0.30;0.20;;;;;;;8.17;100.00;100243.00;5055498;28;20844;-52
2021/05/27 01:20:07;;;;;;;0.30;0.20;;;;;;;8.09;100.00;100244.97;5055438;28;20474;-52
2021/05/27 01:22:34;;;;;;;0.30;0.20;;;;;;;8.04;100.00;100245.03;5055683;28;20447;-52
2021/05/27 01:25:01;;;;;;;0.33;0.20;;;;;;;8.12;100.00;100250.19;5055703;28;20454;-52
2021/05/27 01:27:27;;;;;;;0.30;0.20;;;;;;;7.88;100.00;100249.72;5055341;28;20597;-52
2021/05/27 01:29:54;;;;;;;0.30;0.20;;;;;;;7.83;100.00;100248.97;5055328;28;20536;-52
2021/05/27 01:32:21;;;;;;;0.30;0.20;;;;;;;7.88;100.00;100249.72;5055218;28;21112;-52
2021/05/27 01:34:48;;;;;;;0.30;0.20;;;;;;;8.00;100.00;100257.44;5055166;28;20500;-52
2021/05/27 01:37:14;;;;;;;0.30;0.20;;;;;;;8.02;100.00;100255.66;5055319;28;20470;-53
2021/05/27 01:39:48;;;;;;;0.30;0.20;;;;;;;8.17;100.00;100250.97;5055483;28;20565;-52
2021/05/27 01:42:15;;;;;;;0.30;0.20;;;;;;;8.17;100.00;100256.25;5055547;28;20443;-52
2021/05/27 01:44:43;;;;;;;0.30;0.20;;;;;;;7.94;100.00;100252.25;5054313;28;20558;-53
2021/05/27 01:47:10;;;;;;;0.30;0.20;;;;;;;8.00;100.00;100252.16;5054913;28;20478;-53
2021/05/27 01:49:40;;;;;;;0.30;0.20;;;;;;;8.26;100.00;100256.97;5054218;28;20500;-52
2021/05/27 01:52:08;;;;;;;0.30;0.20;;;;;;;8.26;100.00;100240.19;5054849;28;20819;-52
2021/05/27 01:54:36;;;;;;;0.30;0.20;;;;;;;8.23;100.00;100254.38;5054857;28;20454;-52
2021/05/27 01:57:03;;;;;;;0.30;0.20;;;;;;;8.22;100.00;100249.09;5053887;28;20516;-53
2021/05/27 01:59:30;;;;;;;0.30;0.20;;;;;;;8.65;100.00;100250.91;5054955;28;21002;-53
2021/05/27 02:01:56;;;;;;;0.30;0.20;;;;;;;8.94;100.00;100244.97;5054865;28;20524;-52
2021/05/27 02:04:23;;;;;;;0.30;0.20;;;;;;;9.05;100.00;100248.25;5054738;28;20880;-52
2021/05/27 02:06:50;;;;;;;0.30;0.20;;;;;;;9.03;100.00;100247.38;5041575;28;20983;-52
2021/05/27 02:09:16;;;;;;;0.30;0.20;;;;;;;9.09;100.00;100256.09;5054701;28;20910;-53
2021/05/27 02:11:45;;;;;;;0.30;0.20;;;;;;;9.09;100.00;100260.53;5054509;28;20876;-52
2021/05/27 02:14:14;;;;;;;0.30;0.20;;;;;;;9.23;100.00;100262.84;5054717;28;20806;-52
2021/05/27 02:16:42;;;;;;;0.30;0.20;;;;;;;9.22;100.00;100255.81;5054503;28;20478;-51
2021/05/27 02:19:10;;;;;;;0.30;0.20;;;;;;;9.27;100.00;100260.09;5048934;28;20831;-52
2021/05/27 02:21:37;;;;;;;0.30;0.20;;;;;;;9.25;100.00;100264.56;5054027;28;20450;-52
2021/05/27 02:24:06;;;;;;;0.30;0.20;;;;;;;9.22;100.00;100256.69;5054483;28;20874;-52
2021/05/27 02:26:33;;;;;;;0.30;0.20;;;;;;;9.29;100.00;100266.22;5054784;28;20486;-52
2021/05/27 02:29:00;;;;;;;0.30;0.20;;;;;;;9.31;100.00;100267.06;5054051;28;20487;-53
2021/05/27 02:31:28;;;;;;;0.30;0.20;;;;;;;9.28;100.00;100266.25;5054673;28;20457;-53
2021/05/27 02:33:55;;;;;;;0.30;0.20;;;;;;;9.34;100.00;100268.78;5054522;28;20461;-52
2021/05/27 02:36:22;;;;;;;0.30;0.20;;;;;;;9.23;100.00;100262.84;5053215;28;20517;-52
2021/05/27 02:38:50;;;;;;;0.30;0.20;;;;;;;9.23;100.00;100265.50;5053725;28;20950;-52
2021/05/27 02:41:17;;;;;;;0.30;0.20;;;;;;;9.10;100.00;100260.47;5054090;28;20461;-52
2021/05/27 02:43:44;;;;;;;0.30;0.20;;;;;;;9.54;100.00;100262.97;5052630;28;20474;-53
2021/05/27 02:46:10;;;;;;;0.40;0.30;;;;;;;9.27;100.00;100273.34;5053771;28;20824;-53
2021/05/27 02:48:49;;;;;;;0.40;0.30;;;;;;;9.23;100.00;100270.81;5053854;28;20496;-52
2021/05/27 02:51:16;;;;;;;0.30;0.20;;;;;;;9.09;100.00;100273.78;5054427;28;20955;-52
2021/05/27 02:53:43;;;;;;;0.30;0.20;;;;;;;9.07;100.00;100265.88;5053563;28;20941;-52
2021/05/27 02:56:09;;;;;;;0.30;0.20;;;;;;;8.87;100.00;100268.94;5051602;28;20822;-52
2021/05/27 02:58:36;;;;;;;0.30;0.20;;;;;;;8.86;100.00;100264.56;5053858;28;20474;-52
2021/05/27 03:01:03;;;;;;;0.30;0.20;;;;;;;8.77;100.00;100264.78;5053879;28;20564;-52
2021/05/27 03:03:29;;;;;;;0.30;0.20;;;;;;;8.71;100.00;100264.00;5053551;28;20470;-53
2021/05/27 03:05:58;;;;;;;0.30;0.20;;;;;;;8.86;100.00;100261.91;5053484;28;20797;-52
2021/05/27 03:08:25;;;;;;;0.30;0.20;;;;;;;8.79;100.00;100262.09;5053444;28;20548;-52
2021/05/27 03:10:51;;;;;;;0.30;0.20;;;;;;;8.82;100.00;100260.22;5053562;28;20461;-52
2021/05/27 03:13:18;;;;;;;0.30;0.20;;;;;;;8.85;100.00;100265.47;5053487;28;20451;-52
2021/05/27 03:15:45;;;;;;;0.30;0.20;;;;;;;8.70;100.00;100270.22;5052937;28;20505;-53
2021/05/27 03:18:12;;;;;;;0.30;0.20;;;;;;;8.66;100.00;100271.19;5042166;28;20524;-52
2021/05/27 03:20:39;;;;;;;0.30;0.20;;;;;;;8.57;100.00;100275.78;5052947;28;20893;-54
2021/05/27 03:23:06;;;;;;;0.30;0.20;;;;;;;8.47;100.00;100273.34;5039274;28;20529;-52
2021/05/27 03:25:33;;;;;;;0.83;0.83;;;;;;;8.54;100.00;100273.19;5044605;28;20538;-52
2021/05/27 03:28:01;;;;;;;0.30;0.20;;;;;;;8.59;100.00;100273.97;5053115;28;20467;-52
2021/05/27 03:30:28;;;;;;;0.30;0.20;;;;;;;8.49;100.00;100275.03;5053002;28;20494;-52
2021/05/27 03:32:55;;;;;;;0.30;0.20;;;;;;;8.50;100.00;100270.66;5050931;28;20513;-52
2021/05/27 03:35:22;;;;;;;0.30;0.20;;;;;;;8.62;100.00;100273.03;5052644;28;20811;-51
2021/05/27 03:37:49;;;;;;;0.30;0.20;;;;;;;8.62;100.00;100273.03;5052499;28;20474;-52
2021/05/27 03:40:17;;;;;;;0.30;0.20;;;;;;;8.66;100.00;100261.47;5052368;28;20944;-53
2021/05/27 03:42:46;;;;;;;0.30;0.20;;;;;;;8.88;100.00;100272.47;5052408;28;20508;-52
2021/05/27 03:45:25;;;;;;;0.30;0.20;;;;;;;8.78;100.00;100281.53;5052727;28;20450;-52
2021/05/27 03:47:52;;;;;;;0.30;0.20;;;;;;;8.83;100.00;100275.22;5052272;28;20475;-52
2021/05/27 03:50:23;;;;;;;0.30;0.20;;;;;;;8.88;100.00;100270.69;5052260;28;20494;-52
2021/05/27 03:52:50;;;;;;;0.30;0.20;;;;;;;8.78;100.00;100276.25;5051117;28;20504;-52
2021/05/27 03:55:18;;;;;;;0.30;0.20;;;;;;;8.93;100.00;100277.69;5052319;28;20446;-52
2021/05/27 03:57:47;;;;;;;0.30;0.20;;;;;;;9.04;100.00;100275.66;5052547;28;20467;-52
2021/05/27 04:03:04;;;;;;;0.30;0.20;;;;;;;9.01;100.00;100288.97;5052124;28;20958;-52
2021/05/27 04:08:17;;;;;;;0.30;0.20;;;;;;;9.03;100.00;100280.06;5051872;28;20463;-52
2021/05/27 04:10:45;;;;;;;0.30;0.20;;;;;;;9.11;100.00;100279.91;5051956;28;21005;-52
2021/05/27 04:13:12;;;;;;;0.30;0.20;;;;;;;9.07;100.00;100287.06;5051799;28;20455;-52
2021/05/27 04:15:40;;;;;;;0.30;0.20;;;;;;;9.05;100.00;100290.69;5052526;28;20451;-52
2021/05/27 04:18:17;;;;;;;4.33;3.93;;;;;;;9.18;100.00;100290.38;5051972;28;20516;-52
2021/05/27 04:20:49;;;;;;;0.30;0.20;;;;;;;9.26;100.00;100286.66;5051996;28;20512;-52
2021/05/27 04:23:34;;;;;;;0.30;0.20;;;;;;;9.15;100.00;100286.88;5050848;28;20474;-52
2021/05/27 04:26:05;;;;;;;0.30;0.20;;;;;;;9.15;100.00;100286.88;5051532;28;20525;-53
2021/05/27 04:28:32;;;;;;;0.30;0.20;;;;;;;9.19;100.00;100294.75;5051899;28;20562;-53
2021/05/27 04:33:36;;;;;;;0.30;0.20;;;;;;;9.29;100.00;100311.31;5052036;28;20446;-53
2021/05/27 04:36:04;;;;;;;0.30;0.20;;;;;;;9.05;100.00;100318.06;5039189;28;20459;-53
2021/05/27 04:38:30;;;;;;;0.30;0.20;;;;;;;8.93;100.00;100314.81;5051955;28;20591;-53
2021/05/27 04:40:57;;;;;;;0.30;0.20;;;;;;;8.89;100.00;100314.84;5051632;28;20459;-53
2021/05/27 04:43:24;;;;;;;0.30;0.20;;;;;;;9.25;100.00;100301.69;5051720;28;20451;-53
2021/05/27 04:45:54;;;;;;;0.30;0.20;;;;;;;9.26;100.00;100316.69;5051356;28;20553;-53
2021/05/27 04:48:20;;;;;;;0.30;0.20;;;;;;;9.05;100.00;100310.09;5051581;28;20462;-51
2021/05/27 04:50:49;;;;;;;0.30;0.20;;;;;;;9.12;100.00;100311.69;5051535;28;21026;-51
2021/05/27 04:53:17;;;;;;;0.30;0.20;;;;;;;9.26;100.00;100307.88;5051656;28;20446;-51
2021/05/27 04:55:44;;;;;;;0.30;0.20;;;;;;;9.37;100.00;100316.44;5051445;28;20990;-51
2021/05/27 04:58:11;;;;;;;0.30;0.20;;;;;;;9.10;100.00;100308.22;5051522;28;20834;-51
2021/05/27 05:00:38;;;;;;;0.30;0.20;;;;;;;9.44;100.00;100316.25;5051707;28;20461;-51
2021/05/27 05:03:05;;;;;;;0.30;0.20;;;;;;;9.67;100.00;100323.69;5051493;28;20442;-51
2021/05/27 05:05:35;;;;;;;0.30;0.20;;;;;;;9.75;100.00;100324.38;5051555;28;20475;-52
2021/05/27 05:08:02;;;;;;;0.30;0.20;;;;;;;9.63;100.00;100327.31;5051420;28;20470;-51
2021/05/27 05:10:30;;;;;;;0.33;0.27;;;;;;;9.67;100.00;100328.09;5050122;28;20544;-51
2021/05/27 05:12:57;;;;;;;0.30;0.20;;;;;;;9.74;100.00;100330.59;5051378;28;20455;-51
2021/05/27 05:15:29;;;;;;;0.30;0.20;;;;;;;9.58;100.00;100325.66;5051382;28;20448;-55
2021/05/27 05:18:00;;;;;;;0.30;0.20;;;;;;;9.69;100.00;100331.59;5051502;28;20480;-52
2021/05/27 05:20:29;;;;;;;0.30;0.20;;;;;;;9.72;100.00;100331.50;5051712;28;20816;-53
2021/05/27 05:22:57;;;;;;;0.30;0.20;;;;;;;9.91;100.00;100342.56;5051814;28;20451;-53
2021/05/27 05:25:27;;;;;;;2.00;0.67;;;;;;;9.95;100.00;100344.22;5051714;28;20462;-53
2021/05/27 05:27:54;;;;;;;0.30;0.20;;;;;;;10.05;100.00;100337.78;5051169;28;20790;-52
2021/05/27 05:30:23;;;;;;;0.30;0.20;;;;;;;9.93;100.00;100346.06;5051340;28;20490;-53
2021/05/27 05:32:50;;;;;;;0.30;0.20;;;;;;;9.99;100.00;100341.44;5051289;28;20811;-53
2021/05/27 05:35:19;;;;;;;0.30;0.20;;;;;;;10.17;100.00;100333.94;5051292;28;20458;-53
2021/05/27 05:37:47;;;;;;;0.43;0.40;;;;;;;10.12;100.00;100334.03;5051292;28;20872;-53
2021/05/27 05:40:16;;;;;;;0.30;0.20;;;;;;;10.14;100.00;100332.22;5051226;28;20458;-53
2021/05/27 05:42:44;;;;;;;0.30;0.20;;;;;;;10.26;100.00;100339.91;5051286;28;20446;-52
2021/05/27 05:45:14;;;;;;;0.63;0.60;;;;;;;10.39;100.00;100338.66;5045736;28;20500;-53
2021/05/27 05:47:41;;;;;;;0.30;0.20;;;;;;;10.47;100.00;100332.28;5048046;28;20478;-53
2021/05/27 05:50:08;;;;;;;0.30;0.20;;;;;;;10.59;100.00;100332.81;5050926;28;20999;-53
2021/05/27 05:52:36;;;;;;;0.30;0.20;;;;;;;10.66;100.00;100333.50;5050828;28;20458;-53
2021/05/27 05:55:04;;;;;;;0.30;0.20;;;;;;;10.61;100.00;100323.00;5050641;28;20808;-53
2021/05/27 05:57:31;;;;;;;0.30;0.30;;;;;;;10.71;100.00;100342.22;5054159;28;20474;-53
2021/05/27 05:59:58;;;;;;;0.30;0.20;;;;;;;10.61;100.00;100336.28;5054474;28;20450;-53
2021/05/27 06:02:25;;;;;;;0.30;0.30;;;;;;;10.71;100.00;100336.03;5054710;28;20451;-53
2021/05/27 06:04:51;;;;;;;0.30;0.20;;;;;;;10.82;100.00;100340.09;5054270;28;20496;-53
2021/05/27 06:07:19;;;;;;;0.30;0.20;;;;;;;10.81;100.00;100337.50;5054198;28;20466;-53
2021/05/27 06:09:46;;;;;;;0.30;0.20;;;;;;;10.92;100.00;100338.06;5052696;28;20543;-53
2021/05/27 06:12:13;;;;;;;0.30;0.20;;;;;;;10.86;100.00;100343.56;5054001;28;20447;-53
2021/05/27 06:14:39;;;;;;;18.67;1.97;;;;;;;10.91;100.00;100350.50;5054311;28;20454;-53
2021/05/27 06:17:06;;;;;;;0.33;0.20;;;;;;;11.00;100.00;100349.38;5054396;28;20583;-53
2021/05/27 06:19:33;;;;;;;0.30;0.20;;;;;;;11.10;100.00;100353.50;5054287;28;20462;-53
2021/05/27 06:22:00;;;;;;;0.30;0.20;;;;;;;11.13;100.00;100350.75;5054202;28;20927;-53
2021/05/27 06:24:27;;;;;;;0.30;0.20;;;;;;;11.64;100.00;100362.47;5053923;28;20529;-52
2021/05/27 06:26:53;;;;;;;0.30;0.20;;;;;;;11.43;100.00;100372.03;5053724;28;20479;-53
2021/05/27 06:29:20;;;;;;;0.30;0.20;;;;;;;11.62;100.00;100375.84;5053503;28;20482;-53
2021/05/27 06:31:48;;;;;;;0.50;0.50;;;;;;;11.70;100.00;100378.28;5053832;28;20988;-53
2021/05/27 06:34:14;;;;;;;0.30;0.20;;;;;;;11.56;100.00;100384.91;5053170;28;20462;-52
2021/05/27 06:36:41;;;;;;;0.30;0.20;;;;;;;11.53;100.00;100385.00;5053823;28;20470;-53
2021/05/27 06:39:08;;;;;;;0.30;0.20;;;;;;;11.75;100.00;100386.97;5053762;28;20454;-52
2021/05/27 06:41:34;;;;;;;0.40;0.33;;;;;;;11.78;100.00;100398.41;5053802;28;20450;-52
2021/05/27 06:44:01;;;;;;;0.30;0.20;;;;;;;11.52;100.00;100393.91;5053767;28;20495;-53
2021/05/27 06:46:28;;;;;;;1.00;0.93;;;;;;;11.74;100.00;100404.75;5053463;28;20486;-52
2021/05/27 06:48:56;;;;;;;0.30;0.20;;;;;;;11.87;100.00;100399.94;5053981;28;20451;-53
2021/05/27 06:51:22;;;;;;;0.30;0.20;;;;;;;12.01;100.00;100394.16;5050668;28;20608;-53
2021/05/27 06:53:50;;;;;;;0.30;0.20;;;;;;;11.79;100.00;100402.00;5040827;28;20459;-53
2021/05/27 06:56:17;;;;;;;0.30;0.20;;;;;;;11.62;100.00;100401.59;5052980;28;20482;-53
2021/05/27 06:58:44;;;;;;;0.30;0.20;;;;;;;11.61;100.00;100398.06;5053566;28;20505;-52
2021/05/27 07:01:10;;;;;;;0.30;0.20;;;;;;;11.45;100.00;100397.66;5053354;28;20447;-52
2021/05/27 07:03:37;;;;;;;0.30;0.20;;;;;;;11.38;100.00;100396.13;5053229;28;20451;-53
2021/05/27 07:06:06;;;;;;;0.30;0.20;;;;;;;11.47;100.00;100395.81;5053394;28;20485;-52
2021/05/27 07:08:33;;;;;;;0.30;0.20;;;;;;;11.81;100.00;100394.81;5051267;28;20814;-52
2021/05/27 07:11:00;;;;;;;0.30;0.20;;;;;;;11.82;100.00;100393.91;5053036;28;20574;-53
2021/05/27 07:13:26;;;;;;;0.30;0.20;;;;;;;11.95;100.00;100394.38;5053430;28;20508;-52
2021/05/27 07:15:53;;;;;;;0.30;0.20;;;;;;;12.17;100.00;100390.06;5053389;28;20478;-53
2021/05/27 07:18:20;;;;;;;0.30;0.20;;;;;;;12.12;100.00;100392.88;5053658;28;20975;-53
2021/05/27 07:20:47;;;;;;;0.30;0.20;;;;;;;12.22;100.00;100393.47;5053114;28;20820;-52
2021/05/27 07:23:14;;;;;;;0.30;0.20;;;;;;;12.39;100.00;100395.56;5053283;28;20799;-53
2021/05/27 07:25:41;;;;;;;0.30;0.20;;;;;;;12.24;100.00;100396.94;5053016;28;20485;-53
2021/05/27 07:28:08;;;;;;;0.30;0.20;;;;;;;12.29;100.00;100396.78;5052860;28;20517;-52
2021/05/27 07:30:35;;;;;;;0.30;0.20;;;;;;;12.46;100.00;100389.06;5052560;28;20486;-51
2021/05/27 07:33:02;;;;;;;0.30;0.20;;;;;;;12.68;100.00;100391.88;5052630;28;20450;-52
2021/05/27 07:35:29;;;;;;;0.30;0.20;;;;;;;12.78;100.00;100393.28;5052606;28;20810;-52
2021/05/27 07:37:58;;;;;;;0.40;0.30;;;;;;;13.24;100.00;100389.81;5052777;28;20471;-53
2021/05/27 07:40:26;;;;;;;0.30;0.20;;;;;;;13.02;99.54;100397.72;5052055;28;20450;-52
2021/05/27 07:42:53;;;;;;;0.30;0.20;;;;;;;12.95;99.61;100401.53;5031594;28;20447;-52
2021/05/27 07:45:21;;;;;;;0.30;0.20;;;;;;;12.80;98.86;100398.56;5049494;28;20458;-58
2021/05/27 07:47:48;;;;;;;0.30;0.20;;;;;;;13.00;98.71;100398.69;5052233;28;20540;-52
2021/05/27 07:50:20;;;;;;;0.30;0.20;;;;;;;12.90;98.35;100400.84;5052501;28;20490;-52
2021/05/27 07:52:48;;;;;;;0.30;0.20;;;;;;;12.87;99.61;100398.25;5052269;28;20446;-53
2021/05/27 07:55:15;;;;;;;0.30;0.20;;;;;;;12.83;97.74;100401.97;5052175;28;20887;-53
2021/05/27 07:57:42;;;;;;;0.30;0.30;;;;;;;12.70;98.59;100392.69;5052169;28;20467;-52
2021/05/27 08:00:10;;;;;;;0.30;0.20;;;;;;;12.82;98.42;100392.25;5052221;28;20927;-53
2021/05/27 08:02:37;;;;;;;0.30;0.20;;;;;;;12.79;98.91;100396.81;5052510;28;20451;-52
2021/05/27 08:05:04;;;;;;;0.30;0.20;;;;;;;12.84;98.44;100400.19;5052180;28;20518;-52
2021/05/27 08:07:31;;;;;;;0.30;0.20;;;;;;;13.05;97.50;100394.94;5052598;28;20498;-52
2021/05/27 08:09:58;;;;;;;0.30;0.20;;;;;;;13.22;97.44;100394.34;5052390;28;20487;-52
2021/05/27 08:12:24;;;;;;;0.30;0.20;;;;;;;13.48;98.07;100398.69;5051836;28;20518;-52
2021/05/27 08:14:51;;;;;;;0.30;0.20;;;;;;;13.36;96.44;100400.97;5051985;28;20459;-52
2021/05/27 08:17:18;;;;;;;0.30;0.20;;;;;;;13.79;95.72;100398.34;5048943;28;20497;-52
2021/05/27 08:19:44;;;;;;;0.30;0.20;;;;;;;14.00;96.01;100401.97;5050028;28;20470;-52
2021/05/27 08:22:12;;;;;;;0.30;0.20;;;;;;;14.19;94.71;100404.75;5052319;28;20853;-53
2021/05/27 08:24:39;;;;;;;0.30;0.20;;;;;;;13.94;93.41;100403.06;5051473;28;21019;-53
2021/05/27 08:27:05;;;;;;;0.30;0.20;;;;;;;14.38;93.75;100402.16;5051552;28;20474;-53
2021/05/27 08:29:32;;;;;;;0.50;0.50;;;;;;;14.69;91.48;100402.63;5050076;28;20455;-53
2021/05/27 08:31:58;;;;;;;0.30;0.20;;;;;;;14.37;90.75;100395.94;5051810;28;20474;-53
2021/05/27 08:34:25;;;;;;;1.03;1.03;;;;;;;14.18;90.48;100395.84;5038721;28;20450;-53
2021/05/27 08:36:52;;;;;;;0.30;0.20;;;;;;;14.47;91.76;100393.78;5051992;28;20477;-54
2021/05/27 08:39:19;;;;;;;0.30;0.20;;;;;;;14.37;89.73;100395.94;5051913;28;20451;-53
2021/05/27 08:41:45;;;;;;;0.30;0.20;;;;;;;14.54;90.67;100397.94;5051632;28;20447;-53
2021/05/27 08:44:13;;;;;;;0.30;0.20;;;;;;;14.43;91.15;100398.38;5052190;28;20512;-53
2021/05/27 08:46:41;;;;;;;0.30;0.20;;;;;;;14.96;90.32;100395.19;5051863;28;20493;-53
2021/05/27 08:49:08;;;;;;;0.30;0.20;;;;;;;15.30;88.74;100396.31;5051665;28;20841;-53
2021/05/27 08:51:35;;;;;;;0.30;0.20;;;;;;;15.28;88.79;100391.03;5051533;28;20560;-53
2021/05/27 08:54:03;;;;;;;0.30;0.20;;;;;;;15.29;88.68;100381.19;5051682;28;20897;-54
2021/05/27 08:56:31;;;;;;;0.30;0.20;;;;;;;15.64;87.48;100398.31;5051312;28;20521;-53
2021/05/27 08:58:58;;;;;;;0.30;0.20;;;;;;;15.41;88.51;100388.66;5051875;28;20469;-53
2021/05/27 09:01:25;;;;;;;0.30;0.20;;;;;;;15.46;85.27;100391.09;5051356;28;20496;-53
2021/05/27 09:03:54;;;;;;;0.30;0.20;;;;;;;16.01;86.18;100389.34;5052150;28;20457;-54
2021/05/27 09:06:22;;;;;;;0.30;0.20;;;;;;;15.86;86.92;100395.47;5051635;28;20462;-53
2021/05/27 09:08:49;;;;;;;0.40;0.20;;;;;;;15.80;85.88;100393.97;5051884;28;20512;-53
2021/05/27 09:11:24;;;;;;;0.30;0.20;;;;;;;15.55;83.59;100404.06;5051035;28;20508;-54
2021/05/27 09:14:01;;;;;;;0.70;0.70;;;;;;;15.75;84.32;100398.66;5051853;28;20537;-53
2021/05/27 09:16:28;;;;;;;0.60;0.60;;;;;;;15.90;83.78;100399.75;5048374;28;20478;-53
2021/05/27 09:18:55;;;;;;;0.30;0.20;;;;;;;15.64;84.34;100401.00;5044737;28;20450;-53
2021/05/27 09:21:39;;;;;;;0.30;0.20;;;;;;;16.10;83.30;100399.63;5051252;28;20442;-53
2021/05/27 09:24:07;;;;;;;0.30;0.20;;;;;;;15.99;82.10;100394.78;5051416;28;20782;-54
2021/05/27 09:26:49;;;;;;;0.40;0.20;;;;;;;15.84;83.09;100397.34;5051273;28;20548;-53
2021/05/27 09:29:16;;;;;;;0.40;0.37;;;;;;;16.35;81.79;100411.81;5051227;28;20521;-53
2021/05/27 09:32:15;;;;;;;0.40;0.30;;;;;;;16.24;80.97;100410.53;5053164;28;20577;-53
2021/05/27 09:34:44;;;;;;;0.30;0.20;;;;;;;16.00;82.16;100409.94;5032090;28;20523;-53
2021/05/27 09:37:29;;;;;;;0.40;0.20;;;;;;;15.63;83.26;100412.66;5055316;28;20477;-53
2021/05/27 09:39:58;;;;;;;0.40;0.20;;;;;;;15.62;82.98;100409.13;5055471;28;20462;-53
2021/05/27 09:42:26;;;;;;;0.30;0.20;;;;;;;15.65;83.03;100411.66;5054635;28;20443;-53
2021/05/27 09:44:53;;;;;;;0.30;0.20;;;;;;;15.38;84.73;100408.41;5055033;28;20458;-53
2021/05/27 09:47:34;;;;;;;0.30;0.20;;;;;;;15.55;84.48;100420.16;5054807;28;20478;-53
2021/05/27 09:50:06;;;;;;;0.40;0.20;;;;;;;15.29;82.16;100419.53;5055192;28;20447;-54
2021/05/27 09:52:38;;;;;;;0.40;0.20;;;;;;;15.21;83.88;100418.16;5054891;28;20442;-53
2021/05/27 09:55:12;;;;;;;0.30;0.20;;;;;;;15.19;82.43;100425.38;5055331;28;20511;-54
2021/05/27 09:57:43;;;;;;;0.30;0.20;;;;;;;15.42;81.47;100427.88;5054681;28;20943;-53
2021/05/27 10:00:21;;;;;;;17.93;1.83;;;;;;;15.41;79.64;100421.66;5054496;28;20450;-53
2021/05/27 10:02:49;;;;;;;0.30;0.20;;;;;;;15.49;81.85;100432.03;5054659;28;20447;-53
2021/05/27 10:05:15;;;;;;;0.30;0.20;;;;;;;15.24;82.03;100426.06;5054507;28;20505;-53
2021/05/27 10:07:45;;;;;;;0.40;0.20;;;;;;;15.50;82.13;100423.06;5054193;28;20471;-53
2021/05/27 10:10:32;;;;;;;0.77;0.77;;;;;;;15.52;82.88;100426.53;5052998;28;20482;-54
2021/05/27 10:12:59;;;;;;;0.30;0.20;;;;;;;15.84;80.15;100427.72;5054033;28;20516;-53
2021/05/27 10:15:26;;;;;;;0.30;0.20;;;;;;;15.81;80.16;100418.94;5054247;28;20497;-53
2021/05/27 10:17:57;;;;;;;0.30;0.20;;;;;;;16.17;77.62;100419.84;5053977;28;20474;-53
2021/05/27 10:20:25;;;;;;;0.77;0.77;;;;;;;16.03;79.72;100426.81;5054363;28;20443;-54
2021/05/27 10:22:56;;;;;;;0.30;0.20;;;;;;;15.89;80.43;100427.47;5054030;28;20457;-53
2021/05/27 10:25:24;;;;;;;0.40;0.40;;;;;;;15.88;80.22;100429.28;5053411;28;20447;-53
2021/05/27 10:27:53;;;;;;;0.47;0.47;;;;;;;16.15;78.80;100424.38;5052961;28;20843;-53
2021/05/27 10:30:24;;;;;;;0.30;0.20;;;;;;;16.11;78.50;100427.31;5054072;28;20490;-53
2021/05/27 10:32:58;;;;;;;0.30;0.20;;;;;;;16.18;78.36;100421.59;5054460;28;20453;-53
2021/05/27 10:35:45;;;;;;;0.30;0.20;;;;;;;16.19;77.54;100427.81;5053975;28;20451;-53
2021/05/27 10:38:12;;;;;;;0.40;0.20;;;;;;;16.27;78.55;100423.78;5054344;28;20489;-53
2021/05/27 10:40:40;;;;;;;0.40;0.40;;;;;;;16.39;77.29;100430.34;5053705;28;20451;-52
2021/05/27 10:43:11;;;;;;;0.30;0.20;;;;;;;16.24;77.29;100428.44;5053814;28;20447;-53
2021/05/27 10:46:11;;;;;;;0.30;0.20;;;;;;;16.32;76.85;100417.34;5053619;28;20446;-54
2021/05/27 10:48:44;;;;;;;0.30;0.20;;;;;;;16.52;77.78;100419.88;5020459;22;20528;-49
2021/05/27 10:51:27;;;;;;;0.33;0.20;;;;;;;16.33;78.76;100419.06;4983791;28;20501;-49
2021/05/27 10:53:59;;;;;;;0.40;0.20;;;;;;;16.24;78.62;100423.94;4987679;28;20574;-48
2021/05/27 10:56:34;;;;;;;0.30;0.20;;;;;;;16.14;79.05;100425.34;4989398;28;20453;-48
2021/05/27 10:59:02;;;;;;;0.30;0.20;;;;;;;16.22;77.67;100423.16;4963905;28;20561;-48
2021/05/27 11:01:33;;;;;;;0.30;0.20;;;;;;;16.05;76.86;100417.75;4961481;28;20479;-49
2021/05/27 11:04:05;;;;;;;0.30;0.20;;;;;;;16.10;76.37;100423.75;4966065;28;20472;-49
2021/05/27 11:06:33;;;;;;;0.40;0.20;;;;;;;15.69;77.68;100425.75;4985615;28;20534;-49
2021/05/27 11:11:49;;;;;;;0.40;0.20;;;;;;;15.99;77.39;100420.72;4974213;28;20553;-48
2021/05/27 11:14:40;;;;;;;0.30;0.20;;;;;;;15.84;76.11;100426.84;4961555;28;20936;-48
2021/05/27 11:17:07;;;;;;;0.30;0.20;;;;;;;16.10;76.38;100420.22;4963704;28;21039;-49
2021/05/27 11:25:08;;;;;;;0.30;0.20;;;;;;;16.36;76.75;100418.91;4963234;28;20820;-48
2021/05/27 11:27:36;;;;;;;0.30;0.20;;;;;;;16.74;76.87;100406.25;4970236;28;20474;-48
2021/05/27 11:30:17;;;;;;;0.40;0.20;;;;;;;16.67;74.31;100412.84;4965511;28;20458;-49
2021/05/27 11:33:03;;;;;;;0.40;0.20;;;;;;;16.84;75.22;100415.53;4960480;28;20508;-49
2021/05/27 11:35:42;;;;;;;0.40;0.27;;;;;;;16.95;74.20;100415.00;4961168;28;20448;-48
2021/05/27 11:38:16;;;;;;;0.40;0.20;;;;;;;16.59;74.08;100410.56;4963542;28;20843;-49
2021/05/27 11:40:52;;;;;;;0.40;0.20;;;;;;;16.41;75.82;100417.72;4967506;28;20443;-49
2021/05/27 11:43:35;;;;;;;0.40;0.20;;;;;;;16.24;75.15;100413.22;4967560;28;20446;-49
2021/05/27 11:46:23;;;;;;;0.30;0.20;;;;;;;16.02;76.14;100419.69;4963432;28;20843;-49
2021/05/27 11:51:25;;;;;;;0.30;0.20;;;;;;;15.90;82.96;100426.56;4961592;28;20494;-48
2021/05/27 11:54:00;;;;;;;0.30;0.20;;;;;;;16.05;81.26;100433.84;4960792;28;20458;-48